Nearby METAR Reports


RPLC - Angeles/Pampanga, Philippines
Distance from station: S 166km
Updated: Wed, 13-Nov-2019 2:00am PST
Mostly cloudy
Mostly cloudy
 Wind from NW
Wind: NW 4 km/h
Temperature: 25°C
Dew Point: 21°C
Humidity: 79%
Barometer: 1012 hPa
Clouds: Mostly cloudy
Visibility: 7 km
Cloud details: Partly cloudy 610 m
Mostly cloudy 3048 m
2019/11/12 18:00 RPLC 121800Z 32002KT 7000 SCT020 BKN100 25/21 Q1012 NOSIG RMK A2988
RPLI - Laoag Intl Airport, Philippines
Distance from station: N 171km
Updated: Wed, 13-Nov-2019 2:00am PST
Mostly cloudy
Mostly cloudy
 Wind from NE
Wind: NE 11 km/h
Temperature: 24°C
Dew Point: 19°C
Humidity: 74%
Barometer: 1011 hPa
Clouds: Mostly cloudy
Visibility: 10 km
Cloud details: Few Clouds 549 m
Mostly cloudy 8534 m
2019/11/12 18:00 RPLI 121800Z 05006KT 9999 FEW018 BKN280 24/19 Q1011 NOSIG RMK A2985
 
RPLB - Olongapo/Subic, Philippines
Distance from station: S 205km
Updated: Wed, 13-Nov-2019 2:00am PST
Mostly cloudy
Mostly cloudy
 Wind from ENE
Wind: ENE 7 km/h
Temperature: 25°C
Dew Point: 22°C
Humidity: 83%
Barometer: 1011 hPa
Clouds: Mostly cloudy
Visibility: 10 km
Cloud details: Few Clouds 610 m
Mostly cloudy 2438 m
2019/11/12 18:00 RPLB 121800Z 06004KT 020V090 9999 FEW020 BKN080 25/22 Q1011 NOSIG RMK A2985
RPLL - Ninoy Aquino Intl Airport, Philippines
Distance from station: SSE 247km
Updated: Wed, 13-Nov-2019 2:00am PST
Mostly cloudy
Mostly cloudy
 Wind from varies
Wind: varies 2 km/h
Temperature: 26°C
Dew Point: 22°C
Humidity: 79%
Barometer: 1010 hPa
Clouds: Mostly cloudy
Visibility: 10 km
Cloud details: Partly cloudy 701 m
Mostly cloudy 2743 m
2019/11/12 18:00 RPLL 121800Z VRB01KT 9999 SCT023 BKN090 26/22 Q1010 NOSIG RMK A2983